Time;durP1;ratioP1;P1;durP2;ratioP2;P2;SDS_P1;SDS_P2;PMS_P1;PMS_P2;Temp;Humidity;BMP_temperature;BMP_pressure;BME280_temperature;BME280_humidity;BME280_pressure;Samples;Min_cycle;Max_cycle;Signal;HPM_P1;HPM_P2
2024/02/23 00:01:05;;;;;;;1.75;0.70;;;;;;;5.24;100.00;98652.84;5043290;28;20036;-78
2024/02/23 00:03:30;;;;;;;0.52;0.52;;;;;;;5.12;100.00;98647.28;5012386;28;20096;-78
2024/02/23 00:05:55;;;;;;;1.13;0.60;;;;;;;5.16;100.00;98643.44;5039313;28;20029;-78
2024/02/23 00:08:21;;;;;;;0.60;0.50;;;;;;;5.20;100.00;98646.44;5015130;28;20424;-78
2024/02/23 00:10:47;;;;;;;1.58;0.73;;;;;;;5.10;100.00;98656.16;5017331;28;20489;-78
2024/02/23 00:13:12;;;;;;;2.35;0.70;;;;;;;5.12;100.00;98660.13;5027734;28;21330;-78
2024/02/23 00:15:38;;;;;;;0.80;0.50;;;;;;;5.10;100.00;98666.44;5030629;28;20033;-78
2024/02/23 00:18:03;;;;;;;0.50;0.50;;;;;;;5.14;100.00;98667.69;5045304;28;20029;-78
2024/02/23 00:20:29;;;;;;;2.25;0.82;;;;;;;5.03;100.00;98669.69;5014546;28;20067;-77
2024/02/23 00:22:55;;;;;;;4.00;0.80;;;;;;;5.00;100.00;98676.94;5044914;28;20083;-78
2024/02/23 00:25:20;;;;;;;5.10;1.42;;;;;;;4.99;100.00;98670.19;5009338;28;20047;-77
2024/02/23 00:27:46;;;;;;;1.48;0.80;;;;;;;4.94;100.00;98693.03;5029684;28;20033;-77
2024/02/23 00:30:13;;;;;;;1.30;0.80;;;;;;;4.85;100.00;98690.50;5031478;28;21905;-77
2024/02/23 00:32:38;;;;;;;1.08;0.70;;;;;;;4.84;100.00;98683.78;5028606;28;20060;-77
2024/02/23 00:35:04;;;;;;;2.83;1.02;;;;;;;4.82;100.00;98684.91;5030797;28;20396;-77
2024/02/23 00:37:34;;;;;;;1.00;0.68;;;;;;;4.87;100.00;98685.22;5047494;28;20123;-78
2024/02/23 00:40:04;;;;;;;1.13;0.73;;;;;;;4.79;100.00;98685.28;5024071;28;20033;-78
2024/02/23 00:42:32;;;;;;;2.33;0.80;;;;;;;4.77;100.00;98703.41;5028208;28;20037;-77
2024/02/23 00:44:57;;;;;;;2.17;1.05;;;;;;;4.85;100.00;98708.50;5025021;28;20033;-78
2024/02/23 00:47:23;;;;;;;2.00;0.70;;;;;;;4.74;100.00;98698.59;5045173;28;20029;-78
2024/02/23 00:49:48;;;;;;;2.40;0.82;;;;;;;4.79;100.00;98706.59;5040594;28;20040;-77
2024/02/23 00:52:14;;;;;;;1.60;0.77;;;;;;;4.81;100.00;98696.16;5029184;28;20063;-78
2024/02/23 00:54:40;;;;;;;3.88;0.90;;;;;;;4.82;99.93;98708.03;5016991;28;20037;-78
2024/02/23 00:57:05;;;;;;;1.27;0.80;;;;;;;4.67;100.00;98713.09;5044962;28;20435;-78
2024/02/23 00:59:31;;;;;;;1.95;0.70;;;;;;;4.66;100.00;98720.00;5011419;28;20040;-77
2024/02/23 01:01:56;;;;;;;3.90;0.95;;;;;;;4.75;100.00;98720.75;5009715;28;20095;-78
2024/02/23 01:04:22;;;;;;;2.22;1.00;;;;;;;4.77;100.00;98723.94;5028806;28;20032;-78
2024/02/23 01:06:47;;;;;;;2.83;0.90;;;;;;;4.76;100.00;98718.97;5041875;28;20045;-77
2024/02/23 01:09:13;;;;;;;1.35;0.88;;;;;;;4.73;100.00;98721.88;5045564;28;20261;-78
2024/02/23 01:11:38;;;;;;;3.83;0.73;;;;;;;4.80;100.00;98725.38;5044958;28;20045;-77
2024/02/23 01:14:05;;;;;;;1.98;0.75;;;;;;;4.78;100.00;98729.88;5046650;28;20037;-77
2024/02/23 01:16:32;;;;;;;3.45;1.25;;;;;;;4.76;100.00;98739.53;5044171;28;20028;-77
2024/02/23 01:18:57;;;;;;;6.57;0.80;;;;;;;4.87;100.00;98750.22;5029877;28;20039;-77
2024/02/23 01:21:23;;;;;;;0.93;0.52;;;;;;;4.82;100.00;98743.97;5026357;28;20056;-78
2024/02/23 01:23:49;;;;;;;2.55;0.73;;;;;;;4.78;100.00;98753.78;5027867;28;20029;-77
2024/02/23 01:26:14;;;;;;;4.20;0.50;;;;;;;4.84;100.00;98760.00;5040666;28;20036;-77
2024/02/23 01:28:40;;;;;;;1.73;0.60;;;;;;;4.82;100.00;98761.97;5030874;28;20025;-77
2024/02/23 01:31:10;;;;;;;5.10;0.70;;;;;;;4.74;100.00;98757.66;5047035;28;20025;-77
2024/02/23 01:33:37;;;;;;;2.95;0.60;;;;;;;4.72;100.00;98757.03;5026675;28;20115;-77
2024/02/23 01:36:04;;;;;;;4.95;0.80;;;;;;;4.82;100.00;98759.38;5042525;28;20047;-77
2024/02/23 01:38:32;;;;;;;2.78;0.60;;;;;;;4.75;100.00;98750.78;5027695;28;20032;-78
2024/02/23 01:40:58;;;;;;;2.65;0.80;;;;;;;4.74;100.00;98764.56;5027266;28;20037;-77
2024/02/23 01:43:24;;;;;;;6.05;1.00;;;;;;;4.67;100.00;98774.69;5014949;28;20107;-77
2024/02/23 01:45:49;;;;;;;3.75;0.70;;;;;;;4.72;100.00;98767.31;5031128;28;20572;-77
2024/02/23 01:48:15;;;;;;;4.25;0.80;;;;;;;4.66;100.00;98773.13;5012857;28;20029;-77
2024/02/23 01:50:42;;;;;;;4.15;0.70;;;;;;;4.68;100.00;98773.75;5011650;28;20037;-77
2024/02/23 01:53:09;;;;;;;4.75;0.80;;;;;;;4.67;100.00;98769.56;5028840;28;20115;-77
2024/02/23 01:55:35;;;;;;;4.13;1.08;;;;;;;4.57;100.00;98790.31;5028118;28;20033;-77
2024/02/23 01:58:01;;;;;;;6.95;1.27;;;;;;;4.56;100.00;98787.91;5027882;28;20484;-78
2024/02/23 02:00:26;;;;;;;7.32;1.05;;;;;;;4.56;100.00;98787.91;5029093;28;20024;-77
2024/02/23 02:02:54;;;;;;;9.20;1.00;;;;;;;4.56;100.00;98788.72;5011623;28;20048;-77
2024/02/23 02:05:20;;;;;;;2.78;0.70;;;;;;;4.59;100.00;98795.28;5026474;28;20026;-77
2024/02/23 02:07:50;;;;;;;4.88;0.77;;;;;;;4.56;100.00;98787.91;5025769;28;20032;-77
2024/02/23 02:10:17;;;;;;;4.10;0.90;;;;;;;4.58;100.00;98791.13;5026533;28;20053;-77
2024/02/23 02:12:42;;;;;;;6.13;1.10;;;;;;;4.59;100.00;98797.84;5026676;28;20086;-77
2024/02/23 02:15:08;;;;;;;7.68;0.60;;;;;;;4.53;99.57;98813.91;5026155;28;20036;-77
2024/02/23 02:17:34;;;;;;;15.10;1.33;;;;;;;4.53;99.86;98813.91;5038755;28;20037;-78
2024/02/23 02:20:06;;;;;;;6.18;0.80;;;;;;;4.48;99.12;98802.38;5026341;28;20380;-77
2024/02/23 02:22:34;;;;;;;4.25;1.25;;;;;;;4.50;99.66;98804.75;5012437;28;20065;-77
2024/02/23 02:25:00;;;;;;;5.75;0.80;;;;;;;4.43;99.90;98802.06;5029633;28;20036;-79
2024/02/23 02:27:25;;;;;;;4.55;0.73;;;;;;;4.41;100.00;98809.13;5025617;28;20029;-77
2024/02/23 02:29:51;;;;;;;2.33;0.60;;;;;;;4.53;98.58;98819.06;5047302;28;20029;-77
2024/02/23 02:32:17;;;;;;;7.03;1.13;;;;;;;4.52;99.54;98807.16;5046014;28;20041;-77
2024/02/23 02:34:42;;;;;;;3.15;0.82;;;;;;;4.46;99.08;98798.34;5043553;28;20045;-77
2024/02/23 02:37:08;;;;;;;9.68;0.70;;;;;;;4.40;98.88;98811.88;5026187;28;20454;-77
2024/02/23 02:39:34;;;;;;;8.18;0.85;;;;;;;4.41;98.09;98809.13;5045708;28;20052;-77
2024/02/23 02:41:59;;;;;;;3.38;1.15;;;;;;;4.44;99.35;98808.78;5026306;28;20029;-77
2024/02/23 02:44:26;;;;;;;5.28;0.50;;;;;;;4.41;99.02;98805.78;5027502;28;20098;-77
2024/02/23 02:46:52;;;;;;;1.88;0.70;;;;;;;4.33;99.36;98808.34;5044421;28;20037;-77
2024/02/23 02:49:17;;;;;;;6.65;0.90;;;;;;;4.27;99.93;98810.59;5041964;28;20050;-77
2024/02/23 02:51:42;;;;;;;6.97;1.17;;;;;;;4.33;99.16;98818.59;5026641;28;20037;-76
2024/02/23 02:54:08;;;;;;;5.93;0.80;;;;;;;4.29;99.64;98825.81;5011863;28;20032;-77
2024/02/23 02:56:33;;;;;;;5.03;0.65;;;;;;;4.36;99.01;98816.53;5026353;28;20060;-77
2024/02/23 02:58:59;;;;;;;2.50;0.70;;;;;;;4.36;99.70;98826.00;5027687;28;20052;-77
2024/02/23 03:01:24;;;;;;;4.82;1.20;;;;;;;4.39;98.75;98818.78;5026198;28;20029;-77
2024/02/23 03:03:50;;;;;;;4.80;0.60;;;;;;;4.32;99.47;98822.16;5027077;28;20483;-77
2024/02/23 03:06:15;;;;;;;9.30;0.70;;;;;;;4.32;99.17;98815.25;5041749;28;20508;-77
2024/02/23 03:08:43;;;;;;;5.88;0.73;;;;;;;4.24;99.48;98815.28;5025805;28;20026;-77
2024/02/23 03:11:09;;;;;;;5.85;0.70;;;;;;;4.27;99.47;98838.03;5043389;28;20529;-77
2024/02/23 03:13:35;;;;;;;2.10;0.65;;;;;;;4.27;100.00;98825.97;5046616;28;20037;-77
2024/02/23 03:16:00;;;;;;;4.65;1.58;;;;;;;4.26;99.71;98829.53;5027767;28;20048;-77
2024/02/23 03:18:27;;;;;;;3.13;0.80;;;;;;;4.24;99.36;98839.16;5040075;28;20025;-77
2024/02/23 03:20:53;;;;;;;3.42;0.60;;;;;;;4.23;99.51;98839.31;5025811;28;21078;-77
2024/02/23 03:23:18;;;;;;;4.65;0.75;;;;;;;4.32;98.67;98828.09;5042509;28;20128;-77
2024/02/23 03:25:44;;;;;;;1.92;0.75;;;;;;;4.32;97.86;98843.47;5026535;28;20030;-77
2024/02/23 03:28:09;;;;;;;6.13;1.00;;;;;;;4.31;97.66;98831.59;5041195;28;20407;-77
2024/02/23 03:30:35;;;;;;;5.00;0.47;;;;;;;4.33;97.44;98828.88;5024216;28;20048;-77
2024/02/23 03:33:00;;;;;;;7.22;1.17;;;;;;;4.32;98.08;98845.25;5027113;28;20040;-77
2024/02/23 03:35:26;;;;;;;3.25;0.70;;;;;;;4.33;97.96;98839.94;5029504;28;20628;-77
2024/02/23 03:37:51;;;;;;;6.53;1.52;;;;;;;4.31;98.27;98844.44;5011743;28;20028;-78
2024/02/23 03:40:18;;;;;;;9.57;1.00;;;;;;;4.34;98.37;98851.81;5044076;28;20036;-77
2024/02/23 03:42:44;;;;;;;4.00;0.90;;;;;;;4.27;98.30;98853.41;5030598;28;20025;-77
2024/02/23 03:45:09;;;;;;;3.97;0.93;;;;;;;4.40;98.25;98850.34;5012936;28;20400;-76
2024/02/23 03:47:35;;;;;;;8.18;0.82;;;;;;;4.31;98.03;98854.69;5047922;28;20036;-77
2024/02/23 03:50:00;;;;;;;6.93;0.50;;;;;;;4.40;98.08;98845.22;5047540;28;20451;-77
2024/02/23 03:52:26;;;;;;;3.38;1.98;;;;;;;4.36;97.66;98849.88;5046308;28;20033;-77
2024/02/23 03:54:51;;;;;;;9.48;0.77;;;;;;;4.33;97.33;98849.41;5027890;28;20037;-77
2024/02/23 03:57:17;;;;;;;4.97;0.70;;;;;;;4.24;97.90;98851.19;5027694;28;20048;-77
2024/02/23 03:59:52;;;;;;;5.53;0.80;;;;;;;4.33;97.57;98857.09;5046596;28;20027;-77
2024/02/23 04:02:17;;;;;;;3.00;0.60;;;;;;;4.35;96.58;98861.13;5045291;28;20999;-77
2024/02/23 04:04:43;;;;;;;6.43;0.82;;;;;;;4.36;96.60;98862.72;5023597;28;20041;-77
2024/02/23 04:07:08;;;;;;;9.57;1.52;;;;;;;4.31;97.05;98857.25;5030710;28;20033;-76
2024/02/23 04:09:33;;;;;;;7.32;1.27;;;;;;;4.31;97.55;98861.59;5031652;28;20408;-78
2024/02/23 04:11:59;;;;;;;8.95;0.73;;;;;;;4.36;96.80;98860.16;5015120;28;20060;-77
2024/02/23 04:14:24;;;;;;;9.43;1.05;;;;;;;4.35;96.72;98868.00;5016693;28;20028;-77
2024/02/23 04:16:50;;;;;;;6.65;0.90;;;;;;;4.45;96.93;98879.69;5030377;28;20411;-77
2024/02/23 04:19:15;;;;;;;4.38;1.25;;;;;;;4.38;96.84;98871.03;5032696;28;20391;-77
2024/02/23 04:21:41;;;;;;;3.50;1.20;;;;;;;4.33;97.05;98875.84;5029004;28;20041;-77
2024/02/23 04:24:08;;;;;;;5.93;0.85;;;;;;;4.34;96.57;98871.53;5013286;28;20403;-77
2024/02/23 04:26:34;;;;;;;5.68;1.00;;;;;;;4.40;96.58;98871.69;5047831;28;20037;-77
2024/02/23 04:28:59;;;;;;;6.75;1.02;;;;;;;4.41;95.70;98868.16;5045578;28;20021;-77
2024/02/23 04:31:24;;;;;;;10.05;0.82;;;;;;;4.38;95.53;98872.81;5026569;28;20041;-77
2024/02/23 04:33:50;;;;;;;13.15;1.02;;;;;;;4.32;96.00;98881.97;5020787;28;20025;-77
2024/02/23 04:36:19;;;;;;;18.50;4.22;;;;;;;4.37;95.89;98886.59;5010535;28;20083;-77
2024/02/23 04:38:45;;;;;;;21.58;4.85;;;;;;;4.41;96.42;98895.59;5029103;28;20045;-77
2024/02/23 04:41:10;;;;;;;22.13;5.60;;;;;;;4.51;95.72;98880.03;5029180;28;20084;-77
2024/02/23 04:43:36;;;;;;;12.07;1.83;;;;;;;4.45;95.13;98889.19;5012598;28;20033;-77
2024/02/23 04:46:02;;;;;;;29.98;8.63;;;;;;;4.39;95.81;98888.06;5012280;28;20044;-77
2024/02/23 04:48:27;;;;;;;39.92;14.32;;;;;;;4.44;95.49;98888.34;5015127;28;20033;-77
2024/02/23 04:50:53;;;;;;;35.45;12.40;;;;;;;4.51;95.45;98885.16;5013464;28;20041;-77
2024/02/23 04:53:19;;;;;;;22.73;6.55;;;;;;;4.48;95.69;98884.53;5030309;28;20503;-77
2024/02/23 04:55:44;;;;;;;16.42;6.68;;;;;;;4.62;94.95;98890.75;5047587;28;20036;-77
2024/02/23 04:58:11;;;;;;;10.73;2.20;;;;;;;4.58;94.51;98886.13;5029905;28;20087;-77
2024/02/23 05:00:37;;;;;;;13.70;2.78;;;;;;;4.58;94.95;98891.25;5016544;28;20037;-76
2024/02/23 05:03:03;;;;;;;11.73;3.60;;;;;;;4.59;94.16;98885.13;5031197;28;20376;-78
2024/02/23 05:05:32;;;;;;;7.30;2.08;;;;;;;4.59;94.47;98890.25;5026622;28;20483;-78
2024/02/23 05:07:57;;;;;;;14.82;1.42;;;;;;;4.51;94.67;98892.84;5042368;28;20029;-77
2024/02/23 05:10:23;;;;;;;5.68;1.20;;;;;;;4.45;94.63;98889.19;5028164;28;20066;-77
2024/02/23 05:12:49;;;;;;;9.68;1.88;;;;;;;4.37;95.65;98892.56;5031618;28;20106;-78
2024/02/23 05:15:15;;;;;;;8.80;1.30;;;;;;;4.39;94.99;98893.19;5029677;28;20029;-78
2024/02/23 05:17:40;;;;;;;11.00;3.28;;;;;;;4.43;95.25;98886.75;5047787;28;20128;-77
2024/02/23 05:20:10;;;;;;;9.30;1.27;;;;;;;4.34;95.81;98897.22;5043189;28;20025;-78
2024/02/23 05:22:36;;;;;;;14.15;1.63;;;;;;;4.33;95.50;98893.81;5028517;28;20051;-78
2024/02/23 05:25:01;;;;;;;7.05;1.10;;;;;;;4.38;95.14;98899.28;5043677;28;20387;-78
2024/02/23 05:27:27;;;;;;;11.32;1.35;;;;;;;4.41;95.01;98888.69;5045607;28;20037;-78
2024/02/23 05:29:53;;;;;;;7.97;1.10;;;;;;;4.42;95.35;98889.50;5028929;28;20029;-76
2024/02/23 05:32:19;;;;;;;7.53;2.60;;;;;;;4.34;96.59;98885.16;5045343;28;20444;-77
2024/02/23 05:34:44;;;;;;;13.65;2.78;;;;;;;4.38;96.04;98896.72;5027913;28;20033;-78
2024/02/23 05:37:10;;;;;;;4.10;0.85;;;;;;;4.52;95.92;98886.75;5030376;28;20064;-77
2024/02/23 05:39:37;;;;;;;4.70;1.45;;;;;;;4.54;95.49;98890.78;5024706;28;20032;-77
2024/02/23 05:42:03;;;;;;;8.02;1.42;;;;;;;4.44;95.54;98893.50;5029363;28;20069;-78
2024/02/23 05:44:29;;;;;;;6.72;1.58;;;;;;;4.57;95.42;98892.19;5045676;28;20025;-77
2024/02/23 05:46:54;;;;;;;5.95;2.15;;;;;;;4.55;94.98;98891.56;5013148;28;20036;-77
2024/02/23 05:49:20;;;;;;;11.48;1.77;;;;;;;4.64;93.52;98883.66;5047937;28;20036;-78
2024/02/23 05:51:45;;;;;;;13.73;1.75;;;;;;;4.61;92.84;98899.41;5029927;28;20052;-78
2024/02/23 05:54:11;;;;;;;9.07;2.33;;;;;;;4.66;92.56;98889.44;5028982;28;20033;-78
2024/02/23 05:56:37;;;;;;;12.98;2.88;;;;;;;4.68;92.30;98887.50;5010391;28;20040;-78
2024/02/23 05:59:03;;;;;;;16.52;1.63;;;;;;;4.63;93.61;98884.66;5045539;28;20107;-77
2024/02/23 06:01:28;;;;;;;2.70;1.20;;;;;;;4.76;90.75;98883.31;5028961;28;20033;-78
2024/02/23 06:03:54;;;;;;;9.13;2.80;;;;;;;4.75;91.80;98894.56;5009254;28;20033;-77
2024/02/23 06:06:20;;;;;;;9.40;1.77;;;;;;;4.73;91.27;98891.34;5026989;28;20503;-77
2024/02/23 06:08:46;;;;;;;11.48;1.02;;;;;;;4.78;90.55;98894.22;5029363;28;20036;-77
2024/02/23 06:11:11;;;;;;;6.88;1.40;;;;;;;4.70;91.42;98896.81;5027742;28;20049;-77
2024/02/23 06:13:37;;;;;;;6.05;1.20;;;;;;;4.68;91.56;98891.84;5048058;28;20060;-78
2024/02/23 06:16:04;;;;;;;7.50;2.05;;;;;;;4.71;92.48;98894.09;5046025;28;21824;-78
2024/02/23 06:18:29;;;;;;;11.73;1.52;;;;;;;4.73;92.26;98896.47;5028450;28;20647;-77
2024/02/23 06:20:54;;;;;;;8.57;1.40;;;;;;;4.70;91.64;98896.81;5023601;28;20084;-77
2024/02/23 06:23:21;;;;;;;7.85;1.80;;;;;;;4.65;91.41;98897.31;5024508;28;20391;-78
2024/02/23 06:25:47;;;;;;;12.65;1.67;;;;;;;4.62;92.23;98888.16;5046996;28;20033;-78
2024/02/23 06:28:12;;;;;;;10.77;1.75;;;;;;;4.71;92.16;98883.00;5027380;28;20028;-77
2024/02/23 06:30:38;;;;;;;10.77;1.30;;;;;;;4.52;92.29;98886.75;5028354;28;20408;-78
2024/02/23 06:33:04;;;;;;;12.35;2.42;;;;;;;4.51;93.24;98888.50;5012453;28;20124;-78
2024/02/23 06:35:30;;;;;;;6.43;1.90;;;;;;;4.52;92.05;98897.00;5019903;28;20044;-78
2024/02/23 06:37:55;;;;;;;7.25;2.05;;;;;;;4.62;91.95;98885.59;5028828;28;20040;-77
2024/02/23 06:40:20;;;;;;;6.57;1.15;;;;;;;4.59;92.16;98896.19;5046231;28;20036;-77
2024/02/23 06:42:46;;;;;;;10.65;1.55;;;;;;;4.57;92.34;98892.19;5027308;28;20032;-78
2024/02/23 06:45:11;;;;;;;10.05;1.75;;;;;;;4.54;92.67;98897.66;5013781;28;20044;-78
2024/02/23 06:47:39;;;;;;;13.75;1.45;;;;;;;4.61;91.80;98894.25;5028236;28;20026;-78
2024/02/23 06:50:05;;;;;;;7.53;1.10;;;;;;;4.59;91.83;98895.41;5023003;28;20025;-78
2024/02/23 06:52:31;;;;;;;6.57;1.55;;;;;;;4.74;91.14;98903.22;5026694;28;20195;-77
2024/02/23 06:54:57;;;;;;;8.25;1.10;;;;;;;4.64;91.26;98909.34;5049126;28;20029;-78
2024/02/23 06:57:25;;;;;;;13.63;2.03;;;;;;;4.58;92.70;98906.66;5014653;28;20040;-77
2024/02/23 06:59:51;;;;;;;8.73;2.05;;;;;;;4.65;92.75;98910.13;5029816;28;20107;-77
2024/02/23 07:02:16;;;;;;;13.70;1.50;;;;;;;4.62;91.83;98908.72;5028803;28;20546;-77
2024/02/23 07:04:42;;;;;;;3.38;1.00;;;;;;;4.71;92.07;98903.56;5028598;28;20473;-77
2024/02/23 07:07:08;;;;;;;8.02;1.40;;;;;;;4.64;91.16;98911.91;5029179;28;20053;-78
2024/02/23 07:09:34;;;;;;;6.57;1.27;;;;;;;4.71;89.90;98921.53;5029039;28;20120;-77
2024/02/23 07:12:00;;;;;;;7.32;0.80;;;;;;;4.86;89.45;98900.16;5016197;28;20037;-77
2024/02/23 07:14:25;;;;;;;5.85;1.08;;;;;;;4.88;88.77;98907.69;5029647;28;20024;-77
2024/02/23 07:16:54;;;;;;;11.25;1.35;;;;;;;4.83;89.32;98907.38;5029213;28;20067;-78
2024/02/23 07:19:20;;;;;;;9.18;1.30;;;;;;;4.76;89.64;98907.22;5045961;28;20029;-77
2024/02/23 07:21:46;;;;;;;4.85;0.90;;;;;;;4.91;88.71;98909.91;5030996;28;21275;-77
2024/02/23 07:24:12;;;;;;;9.90;1.55;;;;;;;4.95;89.07;98911.19;5050608;28;20561;-77
2024/02/23 07:26:37;;;;;;;7.15;1.10;;;;;;;4.96;88.32;98914.56;5029852;28;20120;-77
2024/02/23 07:29:02;;;;;;;10.38;1.10;;;;;;;4.93;89.16;98914.91;5032890;28;20059;-77
2024/02/23 07:31:28;;;;;;;9.35;1.27;;;;;;;5.09;87.39;98916.63;5013006;28;20042;-77
2024/02/23 07:33:53;;;;;;;9.60;1.50;;;;;;;5.07;87.95;98917.59;5030257;28;20040;-77
2024/02/23 07:36:19;;;;;;;7.50;1.05;;;;;;;5.11;87.13;98927.53;5046883;28;20044;-77
2024/02/23 07:38:44;;;;;;;6.72;1.23;;;;;;;5.09;87.50;98925.13;5049220;28;20526;-77
2024/02/23 07:41:13;;;;;;;5.72;1.25;;;;;;;5.14;87.15;98919.47;5014573;28;20053;-77
2024/02/23 07:43:38;;;;;;;12.98;1.48;;;;;;;5.15;85.59;98923.66;5032614;28;20167;-78
2024/02/23 07:46:04;;;;;;;4.38;1.00;;;;;;;5.14;87.11;98925.44;5016013;28;20120;-77
2024/02/23 07:48:30;;;;;;;6.15;1.20;;;;;;;5.20;87.95;98929.13;5032390;28;20032;-77
2024/02/23 07:50:56;;;;;;;7.78;1.10;;;;;;;5.17;87.45;98917.38;5032228;28;20545;-77
2024/02/23 07:53:21;;;;;;;12.88;1.30;;;;;;;5.18;87.34;98919.00;5030997;28;20045;-77
2024/02/23 07:55:47;;;;;;;5.25;1.30;;;;;;;5.21;85.93;98905.78;5046091;28;20037;-77
2024/02/23 07:58:12;;;;;;;6.90;1.38;;;;;;;5.34;86.79;98915.53;5016403;28;20029;-77
2024/02/23 08:00:38;;;;;;;5.25;1.23;;;;;;;5.42;87.19;98912.13;5013532;28;20096;-77
2024/02/23 08:03:04;;;;;;;10.63;1.40;;;;;;;5.57;86.15;98902.72;5048761;28;20033;-78
2024/02/23 08:05:29;;;;;;;5.05;0.80;;;;;;;5.67;86.61;98902.53;5030612;28;20068;-77
2024/02/23 08:07:55;;;;;;;5.57;0.80;;;;;;;5.63;86.02;98902.06;5047438;28;20044;-77
2024/02/23 08:10:21;;;;;;;7.30;0.90;;;;;;;5.76;82.76;98901.47;5030336;28;20033;-78
2024/02/23 08:12:47;;;;;;;6.40;1.48;;;;;;;5.80;84.38;98909.66;5030898;28;20037;-78
2024/02/23 08:15:12;;;;;;;7.25;1.35;;;;;;;5.81;84.26;98914.63;5046525;28;20031;-78
2024/02/23 08:17:38;;;;;;;5.50;1.00;;;;;;;6.02;84.02;98913.25;5009186;28;20048;-76
2024/02/23 08:20:04;;;;;;;5.18;1.20;;;;;;;6.16;81.95;98914.25;5029224;28;20033;-77
2024/02/23 08:22:30;;;;;;;12.20;1.20;;;;;;;6.05;82.00;98907.75;5027544;28;20037;-77
2024/02/23 08:24:55;;;;;;;5.68;1.10;;;;;;;5.97;82.09;98921.50;5028562;28;20508;-76
2024/02/23 08:27:20;;;;;;;5.88;1.38;;;;;;;6.00;83.17;98925.47;5048344;28;20040;-78
2024/02/23 08:29:46;;;;;;;10.48;1.90;;;;;;;5.94;82.86;98923.56;5027619;28;20041;-77
2024/02/23 08:32:12;;;;;;;4.90;1.02;;;;;;;5.86;83.10;98924.44;5032077;28;20037;-78
2024/02/23 08:34:38;;;;;;;5.80;1.30;;;;;;;5.91;83.18;98936.78;5014122;28;20024;-77
2024/02/23 08:37:03;;;;;;;5.68;1.15;;;;;;;6.21;82.65;98927.41;5014741;28;20482;-78
2024/02/23 08:39:29;;;;;;;7.68;1.20;;;;;;;6.50;80.32;98928.44;5048304;28;20446;-78
2024/02/23 08:41:54;;;;;;;9.73;1.83;;;;;;;6.56;79.87;98933.72;5044378;28;20029;-77
2024/02/23 08:44:20;;;;;;;5.85;1.02;;;;;;;6.59;80.65;98919.69;5043466;28;20061;-78
2024/02/23 08:46:46;;;;;;;8.57;1.27;;;;;;;7.14;79.29;98909.91;5029072;28;20033;-78
2024/02/23 08:49:11;;;;;;;15.48;1.58;;;;;;;7.99;76.04;98922.16;5031908;28;20029;-77
2024/02/23 08:51:36;;;;;;;10.07;1.77;;;;;;;8.11;71.99;98908.75;5047570;28;20036;-78
2024/02/23 08:54:05;;;;;;;8.95;1.30;;;;;;;7.88;72.54;98907.16;5030710;28;20044;-78
2024/02/23 08:56:31;;;;;;;8.15;1.50;;;;;;;7.73;74.36;98909.78;5031754;28;20070;-77
2024/02/23 08:58:57;;;;;;;7.00;1.10;;;;;;;7.75;73.90;98914.78;5031633;28;20103;-77
2024/02/23 09:01:23;;;;;;;8.55;2.00;;;;;;;7.34;76.02;98918.69;5046071;28;20451;-77
2024/02/23 09:03:48;;;;;;;6.30;1.38;;;;;;;7.04;77.27;98907.63;5048111;28;20103;-77
2024/02/23 09:06:14;;;;;;;4.20;0.93;;;;;;;6.92;77.66;98927.88;5045321;28;20037;-77
2024/02/23 09:08:41;;;;;;;9.93;1.30;;;;;;;6.89;79.09;98914.56;5048193;28;20044;-77
2024/02/23 09:11:06;;;;;;;7.45;1.30;;;;;;;7.06;78.20;98915.97;5027278;28;20047;-78
2024/02/23 09:13:32;;;;;;;10.73;1.50;;;;;;;7.05;77.39;98906.66;5015301;28;20036;-77
2024/02/23 09:15:57;;;;;;;5.68;1.10;;;;;;;7.04;76.96;98907.63;5032069;28;20039;-77
2024/02/23 09:18:23;;;;;;;6.82;1.05;;;;;;;7.03;77.21;98911.19;5028533;28;20037;-77
2024/02/23 09:20:48;;;;;;;3.63;1.13;;;;;;;7.01;77.52;98911.34;5010717;28;20037;-77
2024/02/23 09:23:14;;;;;;;6.43;0.95;;;;;;;7.03;77.28;98906.03;5031704;28;20082;-78
2024/02/23 09:25:39;;;;;;;7.70;1.90;;;;;;;6.86;79.37;98902.84;5028161;28;20064;-77
2024/02/23 09:28:05;;;;;;;6.45;1.40;;;;;;;6.94;77.99;98907.09;5046895;28;20013;-77
2024/02/23 09:30:30;;;;;;;3.05;0.98;;;;;;;6.85;78.47;98924.41;5030273;28;20028;-77
2024/02/23 09:32:56;;;;;;;9.05;1.38;;;;;;;6.72;78.00;98917.28;5045907;28;20104;-78
2024/02/23 09:35:21;;;;;;;9.38;1.30;;;;;;;6.85;78.94;98926.19;5030611;28;20032;-77
2024/02/23 09:37:47;;;;;;;11.48;1.27;;;;;;;6.90;77.10;98916.16;5010212;28;20546;-77
2024/02/23 09:40:14;;;;;;;6.75;1.23;;;;;;;6.87;76.00;98917.31;5014554;28;20437;-78
2024/02/23 09:42:39;;;;;;;11.75;2.10;;;;;;;6.91;76.29;98913.41;5009767;28;20048;-78
2024/02/23 09:45:06;;;;;;;10.32;1.33;;;;;;;6.88;76.75;98931.78;5028895;28;20032;-77
2024/02/23 09:47:32;;;;;;;6.30;1.00;;;;;;;6.92;74.61;98922.72;5013023;28;20052;-77
2024/02/23 09:50:00;;;;;;;5.82;1.33;;;;;;;6.96;75.19;98933.47;5029511;28;20392;-78
2024/02/23 09:52:28;;;;;;;5.05;1.13;;;;;;;6.93;76.37;98931.25;5028520;28;20036;-78
2024/02/23 09:54:54;;;;;;;5.28;1.33;;;;;;;6.95;74.57;98939.59;5045432;28;20028;-77
2024/02/23 09:57:21;;;;;;;11.93;2.22;;;;;;;6.91;75.51;98933.22;5010013;28;20034;-77
2024/02/23 09:59:49;;;;;;;10.63;1.10;;;;;;;7.00;75.04;98922.63;5012783;28;20032;-77
2024/02/23 10:02:16;;;;;;;4.72;0.63;;;;;;;7.01;75.22;98926.81;5049269;28;20044;-77
2024/02/23 10:04:43;;;;;;;10.50;1.67;;;;;;;7.07;75.44;98935.63;5048029;28;20091;-77
2024/02/23 10:07:09;;;;;;;8.77;1.17;;;;;;;7.06;74.06;98925.47;5047158;28;20040;-77
2024/02/23 10:09:35;;;;;;;7.85;0.90;;;;;;;7.15;73.83;98930.34;5029384;28;20068;-77
2024/02/23 10:12:02;;;;;;;5.60;1.05;;;;;;;7.01;74.16;98931.97;5014423;28;20061;-77
2024/02/23 10:14:27;;;;;;;5.18;0.80;;;;;;;6.92;74.81;98935.63;5028551;28;20035;-77
2024/02/23 10:16:55;;;;;;;8.10;0.90;;;;;;;6.79;75.60;98940.59;5028986;28;20048;-77
2024/02/23 10:19:20;;;;;;;7.28;1.27;;;;;;;6.93;74.88;98926.91;5007852;28;20116;-77
2024/02/23 10:21:46;;;;;;;6.50;1.42;;;;;;;7.07;75.80;98937.41;5028154;28;20103;-77
2024/02/23 10:24:11;;;;;;;5.35;1.27;;;;;;;7.00;74.62;98930.34;5029548;28;20490;-77
2024/02/23 10:26:37;;;;;;;7.07;1.10;;;;;;;7.08;73.98;98937.19;5031593;28;20540;-78
2024/02/23 10:29:03;;;;;;;6.72;1.77;;;;;;;7.20;74.23;98932.41;5025118;28;20025;-77
2024/02/23 10:31:34;;;;;;;4.22;0.90;;;;;;;7.33;74.04;98930.00;5014078;28;20047;-77
2024/02/23 10:33:59;;;;;;;3.88;0.85;;;;;;;7.36;73.55;98944.28;5047223;28;20033;-77
2024/02/23 10:36:30;;;;;;;4.40;1.17;;;;;;;7.34;73.04;98943.69;5023381;28;20412;-77
2024/02/23 10:39:03;;;;;;;6.93;1.10;;;;;;;7.32;74.10;98941.28;5029235;28;20115;-77
2024/02/23 10:41:32;;;;;;;4.88;1.02;;;;;;;7.37;72.27;98935.59;5029964;28;20048;-77
2024/02/23 10:43:59;;;;;;;3.00;0.88;;;;;;;7.37;73.76;98962.16;5031373;28;20032;-78
2024/02/23 10:46:25;;;;;;;10.90;0.90;;;;;;;7.27;72.70;98948.78;5050060;28;20037;-77
2024/02/23 10:48:54;;;;;;;9.30;1.30;;;;;;;7.31;73.02;98954.34;5032348;28;20067;-77
2024/02/23 10:51:19;;;;;;;5.63;0.98;;;;;;;7.24;72.66;98959.44;5015027;28;20033;-78
2024/02/23 10:53:46;;;;;;;4.15;0.95;;;;;;;7.29;72.84;98954.53;5036485;28;20056;-77
2024/02/23 10:56:12;;;;;;;8.27;1.05;;;;;;;7.37;72.41;98956.22;5027477;28;20037;-77
2024/02/23 10:58:37;;;;;;;5.35;1.00;;;;;;;7.34;72.62;98954.00;5016624;28;20024;-78
2024/02/23 11:01:06;;;;;;;4.05;1.20;;;;;;;7.39;74.82;98949.09;5011647;28;20041;-78
2024/02/23 11:03:35;;;;;;;3.92;0.90;;;;;;;7.40;73.12;98948.09;5029176;28;20511;-77
2024/02/23 11:06:00;;;;;;;5.75;0.90;;;;;;;7.49;72.24;98944.44;5033241;28;20108;-77
2024/02/23 11:08:29;;;;;;;7.07;1.30;;;;;;;7.51;72.32;98946.84;5029111;28;20679;-77
2024/02/23 11:10:55;;;;;;;8.98;0.80;;;;;;;7.64;72.02;98944.41;5016055;28;20040;-78
2024/02/23 11:13:37;;;;;;;7.07;0.93;;;;;;;7.59;72.64;98947.56;5015189;28;20040;-77
2024/02/23 11:16:08;;;;;;;11.40;1.77;;;;;;;7.60;73.07;98938.03;5033506;28;20176;-76
2024/02/23 11:18:35;;;;;;;7.38;1.25;;;;;;;7.43;73.03;98947.75;5015226;28;20041;-77
2024/02/23 11:21:04;;;;;;;10.70;1.40;;;;;;;7.44;73.96;98944.22;5046077;28;20033;-77
2024/02/23 11:23:48;;;;;;;8.18;1.25;;;;;;;7.54;74.08;98949.88;5030305;28;20118;-78
2024/02/23 11:26:14;;;;;;;7.72;1.30;;;;;;;7.51;74.20;98954.59;5015623;28;20048;-77
2024/02/23 11:28:53;;;;;;;9.85;1.15;;;;;;;7.45;73.31;98950.16;5032765;28;20053;-77
2024/02/23 11:31:31;;;;;;;5.97;1.70;;;;;;;7.44;73.68;98962.25;5023042;28;20033;-77
2024/02/23 11:33:57;;;;;;;8.25;1.25;;;;;;;7.49;73.48;98953.97;5017358;28;20040;-76